Latest Weather Observations for Hobart

IDT60801

Issued at 4:32 pm EST Friday 30 September 2016 (issued every 30 minutes, with the page automatically refreshed every 10 minutes)

About weather observations | Map of weather stations | Latest weather observations for TAS | Other Formats
Station Details ID: 094029 Name: HOBART (ELLERSLIE ROAD) Lat: -42.89 Lon: 147.33 Height: 50.5 m
Data from the previous 72 hours. | See also: Recent months at Hobart
Date/Time
EST
Temp
°C
App
Temp
°C
Dew
Point
°C
Rel
Hum
%
Delta-T
°C
Wind Press
QNH
hPa
Press
MSL
hPa
Rain since
9am
mm
Dir  Spd
km/h
Gust
km/h
Spd
kts
Gust
kts
30/04:30pm 13.1 7.3 4.5 56 4.0 NNW 24 35 13 19 988.2 988.3 2.6
30/04:00pm 13.1 6.7 5.3 59 3.7 NNW 28 41 15 22 987.7 987.8 2.6
30/03:35pm 13.5 6.3 5.0 56 4.0 NNW 32 50 17 27 987.5 987.6 2.6
30/03:30pm 13.3 5.5 5.0 57 3.9 NNW 35 50 19 27 987.4 987.5 2.6
30/03:27pm 13.4 6.4 6.2 61 3.4 NNW 32 50 17 27 987.3 987.4 2.6
30/03:00pm 12.0 7.1 8.6 80 1.7 NNW 24 35 13 19 987.3 987.4 2.6
30/02:30pm 11.4 6.4 9.4 87 1.0 NNW 26 37 14 20 987.3 987.4 2.6
30/02:00pm 12.6 10.6 10.3 86 1.2 NE 11 17 6 9 987.1 987.2 2.6
30/01:30pm 12.2 8.7 10.3 88 1.0 ESE 19 28 10 15 986.9 987.0 2.6
30/01:00pm 13.5 8.1 9.4 76 2.1 SE 28 37 15 20 986.8 986.9 2.4
30/12:30pm 13.3 7.9 9.6 78 1.9 SE 28 43 15 23 986.9 987.0 2.4
30/12:18pm 13.3 8.1 10.1 81 1.7 SSE 28 48 15 26 986.7 986.8 2.4
30/12:00pm 13.0 7.9 10.5 85 1.3 SSE 28 41 15 22 987.0 987.1 2.4
30/11:43am 13.6 8.3 9.8 78 2.0 S 28 46 15 25 987.0 987.1 2.4
30/11:30am 13.7 8.2 9.2 74 2.3 SSE 28 43 15 23 987.4 987.5 2.4
30/11:00am 13.4 7.4 10.0 80 1.8 SE 32 41 17 22 988.5 988.6 2.4
30/10:36am 13.4 7.4 10.2 81 1.7 SE 32 50 17 27 988.9 989.0 2.4
30/10:30am 13.4 7.2 10.0 80 1.8 SE 33 48 18 26 989.0 989.1 2.4
30/10:00am 13.0 7.1 10.3 84 1.4 ESE 32 46 17 25 989.4 989.5 2.4
30/09:49am 12.8 7.3 10.7 87 1.1 ESE 30 48 16 26 989.5 989.6 2.4
30/09:30am 12.6 6.4 11.3 92 0.7 ESE 35 52 19 28 989.5 989.6 2.0
30/09:00am 12.6 6.0 11.5 93 0.6 ESE 37 56 20 30 989.4 989.5 39.0
30/08:52am 12.6 6.0 11.3 92 0.7 SE 37 54 20 29 989.5 989.6 38.2
30/08:35am 12.0 6.3 11.1 94 0.5 SSE 32 50 17 27 989.6 989.7 36.4
30/08:30am 12.0 5.7 11.1 94 0.5 S 35 50 19 27 989.6 989.7 35.0
30/08:00am 11.7 6.2 10.7 94 0.5 S 30 48 16 26 989.7 989.8 31.4
30/07:54am 11.7 6.2 10.6 93 0.6 SSW 30 48 16 26 989.9 990.0 30.6
30/07:30am 11.8 7.8 10.3 90 0.8 S 22 35 12 19 990.7 990.7 27.8
30/07:00am 12.3 6.5 10.8 90 0.8 ESE 32 46 17 25 991.7 991.7 26.0
30/06:30am 12.3 6.3 10.8 90 0.8 SE 33 46 18 25 991.5 991.5 25.0
30/06:00am 12.5 7.1 10.8 89 0.9 SE 30 44 16 24 991.6 991.6 23.8
30/05:30am 12.0 8.8 11.1 94 0.5 SE 19 28 10 15 991.8 991.8 22.8
30/05:00am 12.0 8.3 10.3 89 0.9 ESE 20 30 11 16 991.8 991.8 21.4
30/04:30am 12.8 6.2 9.9 82 1.5 E 35 56 19 30 991.7 991.7 20.8
30/04:16am 12.9 7.0 10.4 85 1.3 ESE 32 50 17 27 991.4 991.4 20.8
30/04:00am 12.8 7.0 10.7 87 1.1 ESE 32 46 17 25 991.4 991.4 20.6
30/03:30am 12.6 6.3 10.9 89 0.9 E 35 50 19 27 991.8 991.8 20.0
30/03:06am 12.6 7.6 11.1 91 0.8 E 28 48 15 26 992.2 992.2 18.8
30/03:00am 12.8 8.2 10.9 88 1.0 E 26 41 14 22 992.1 992.1 18.4
30/02:30am 12.2 9.8 11.5 95 0.4 E 15 20 8 11 992.3 992.3 14.4
30/02:00am 12.5 9.3 11.2 92 0.7 E 19 28 10 15 992.7 992.7 10.6
30/01:30am 12.3 10.2 11.2 93 0.6 E 13 20 7 11 993.1 993.1 9.0
30/01:00am 11.9 11.0 10.8 93 0.6 ESE 6 9 3 5 993.5 993.5 7.6
30/12:30am 11.4 9.0 10.2 92 0.6 WSW 13 17 7 9 993.6 993.6 5.8
30/12:00am 11.6 9.5 9.8 89 0.9 NNE 11 17 6 9 993.8 993.8 5.2
 
Date/Time
EST
Temp
°C
App
Temp
°C
Dew
Point
°C
Rel
Hum
%
Delta-T
°C
Wind Press
QNH
hPa
Press
MSL
hPa
Rain since
9am
mm
Dir  Spd
km/h
Gust
km/h
Spd
kts
Gust
kts
29/11:30pm 12.3 11.2 10.8 90 0.8 N 7 13 4 7 994.0 994.0 2.8
29/11:00pm 12.9 9.4 10.2 84 1.4 E 19 30 10 16 994.0 994.0 0.8
29/10:30pm 13.2 8.2 9.7 79 1.8 E 26 39 14 21 993.9 993.9 0.4
29/10:00pm 13.1 8.5 9.8 80 1.7 E 24 35 13 19 994.3 994.3 0.4
29/09:30pm 13.0 7.3 9.9 81 1.6 E 30 43 16 23 994.4 994.4 0.4
29/09:00pm 13.0 7.7 9.7 80 1.7 E 28 39 15 21 994.6 994.6 0.4
29/08:30pm 13.0 8.4 9.5 79 1.8 E 24 37 13 20 994.7 994.7 0.4
29/08:00pm 12.9 8.3 9.6 80 1.7 E 24 35 13 19 994.8 994.8 0.4
29/07:30pm 12.8 8.6 9.7 81 1.6 E 22 39 12 21 994.6 994.6 0.4
29/07:00pm 12.9 9.0 9.6 80 1.7 E 20 32 11 17 994.6 994.6 0.4
29/06:30pm 13.4 9.9 8.7 73 2.4 E 17 39 9 21 994.8 994.8 0.2
29/06:00pm 13.4 10.2 9.9 79 1.8 ENE 17 30 9 16 995.1 995.1 0.2
29/05:30pm 13.9 9.6 9.5 75 2.3 ENE 22 33 12 18 994.6 994.6 0.2
29/05:00pm 14.0 9.4 9.8 76 2.2 ENE 24 35 13 19 994.6 994.6 0.2
29/04:30pm 13.9 8.7 10.1 78 2.0 ENE 28 44 15 24 994.3 994.3 0.2
29/04:00pm 13.9 9.4 10.1 78 2.0 ENE 24 33 13 18 994.0 994.0 0.2
29/03:37pm 13.7 7.8 10.5 81 1.7 ENE 32 50 17 27 994.1 994.1 0.2
29/03:30pm 13.8 7.3 10.4 80 1.8 NE 35 48 19 26 994.1 994.1 0.0
29/03:08pm 14.2 9.0 10.2 77 2.1 ENE 28 50 15 27 994.1 994.1 0.0
29/03:00pm 14.2 9.0 10.2 77 2.1 ENE 28 41 15 22 994.1 994.1 0.0
29/02:30pm 14.0 8.5 10.4 79 1.9 NE 30 46 16 25 994.5 994.5 0.0
29/02:26pm 13.9 8.8 10.5 80 1.8 NE 28 46 15 25 994.5 994.5 0.0
29/02:00pm 14.0 8.1 10.4 79 1.9 NE 32 48 17 26 994.6 994.6 0.0
29/01:32pm 14.3 7.7 10.1 76 2.2 ENE 35 54 19 29 994.8 994.8 0.0
29/01:30pm 14.3 7.3 10.1 76 2.2 NE 37 54 20 29 994.8 994.8 0.0
29/01:02pm 14.4 8.4 10.0 75 2.3 ENE 32 50 17 27 994.9 994.9 0.0
29/01:00pm 14.4 8.8 10.0 75 2.3 ENE 30 46 16 25 994.9 994.9 0.0
29/12:30pm 14.8 8.8 10.1 73 2.5 ENE 32 44 17 24 995.3 995.3 0.0
29/12:15pm 15.0 9.8 10.1 72 2.6 NE 28 46 15 25 995.4 995.4 0.0
29/12:00pm 15.0 9.4 10.1 72 2.6 NE 30 43 16 23 995.7 995.7 0.0
29/11:50am 15.2 10.0 10.1 71 2.7 NE 28 46 15 25 995.8 995.8 0.0
29/11:30am 14.9 10.9 10.4 74 2.4 NE 22 37 12 20 996.0 996.0 0.0
29/11:00am 14.3 11.3 10.7 79 1.9 NE 17 26 9 14 996.3 996.3 0.0
29/10:30am 14.7 11.7 10.6 76 2.2 NE 17 28 9 15 996.7 996.7 0.0
29/10:00am 14.3 12.0 10.3 77 2.1 NE 13 20 7 11 997.2 997.2 0.0
29/09:30am 14.0 11.6 10.2 78 2.0 NE 13 20 7 11 997.3 997.3 0.0
29/09:00am 13.7 11.8 10.5 81 1.7 NNE 11 17 6 9 997.8 997.8 0.4
29/08:30am 13.4 11.8 10.1 80 1.7 WNW 9 13 5 7 998.0 998.0 0.0
29/08:00am 12.5 12.1 9.8 83 1.4 W 2 7 1 4 998.2 998.2 0.0
29/07:30am 12.0 10.8 9.5 85 1.3 WSW 6 9 3 5 998.5 998.5 0.0
29/07:00am 11.7 11.0 8.7 82 1.5 SW 2 9 1 5 998.7 998.7 0.0
29/06:30am 11.4 9.8 8.2 81 1.6 W 6 9 3 5 999.1 999.1 0.0
29/06:00am 11.2 8.8 7.0 75 2.0 W 9 11 5 6 999.3 999.3 0.0
29/05:30am 10.6 8.6 6.4 75 2.0 W 6 9 3 5 999.6 999.6 0.0
29/05:00am 10.3 7.9 5.3 71 2.3 W 7 11 4 6 999.9 999.9 0.0
29/04:30am 9.7 7.8 5.1 73 2.1 NNW 4 7 2 4 1000.4 1000.4 0.0
29/04:00am 9.2 6.9 5.0 75 1.9 WSW 6 7 3 4 1000.8 1000.8 0.0
29/03:30am 8.9 7.7 4.7 75 1.9 CALM 0 0 0 0 1001.2 1001.2 0.0
29/03:00am 8.2 7.0 4.6 78 1.6 CALM 0 0 0 0 1001.5 1001.5 0.0
29/02:30am 8.6 7.4 4.8 77 1.7 CALM 0 0 0 0 1002.0 1002.0 0.0
29/02:00am 9.0 6.7 4.8 75 1.9 N 6 7 3 4 1002.7 1002.8 0.0
29/01:30am 9.8 7.3 4.9 71 2.2 NNW 7 9 4 5 1003.1 1003.2 0.0
29/01:00am 10.3 6.7 5.0 69 2.4 NNW 13 17 7 9 1003.4 1003.5 0.0
29/12:30am 10.3 8.2 6.5 77 1.8 NNW 7 13 4 7 1003.5 1003.6 0.0
29/12:00am 10.9 8.1 6.9 76 1.9 NNW 11 17 6 9 1003.6 1003.7 0.0
 
Date/Time
EST
Temp
°C
App
Temp
°C
Dew
Point
°C
Rel
Hum
%
Delta-T
°C
Wind Press
QNH
hPa
Press
MSL
hPa
Rain since
9am
mm
Dir  Spd
km/h
Gust
km/h
Spd
kts
Gust
kts
28/11:30pm 10.6 8.9 8.2 85 1.2 NNE 7 9 4 5 1003.7 1003.8 0.0
28/11:00pm 11.3 10.5 8.0 80 1.6 NW 2 7 1 4 1004.2 1004.3 0.0
28/10:30pm 11.5 9.8 8.3 81 1.6 NNW 7 9 4 5 1004.5 1004.6 0.0
28/10:00pm 11.9 10.2 8.3 78 1.8 NW 7 9 4 5 1004.6 1004.7 0.0
28/09:30pm 12.3 11.1 8.1 75 2.1 NNW 4 11 2 6 1005.0 1005.1 0.0
28/09:00pm 12.5 10.7 7.8 73 2.3 N 7 15 4 8 1005.5 1005.6 0.0
28/08:30pm 12.6 9.6 7.5 71 2.5 NNE 13 19 7 10 1005.8 1005.9 0.0
28/08:00pm 12.7 9.5 6.9 68 2.8 NE 13 17 7 9 1005.9 1006.0 0.0
28/07:30pm 12.6 10.5 6.6 67 2.9 ENE 7 9 4 5 1006.0 1006.1 0.0
28/07:00pm 12.7 9.8 6.4 65 3.0 NE 11 19 6 10 1005.8 1005.9 0.0
28/06:30pm 12.9 8.4 6.2 64 3.2 NE 19 28 10 15 1005.7 1005.8 0.0
28/06:00pm 13.1 9.2 5.4 59 3.6 ENE 15 20 8 11 1005.7 1005.8 0.0
28/05:30pm 13.3 8.5 4.9 57 3.9 ENE 19 30 10 16 1005.4 1005.5 0.0
28/05:00pm 13.7 9.9 5.7 58 3.8 ENE 15 24 8 13 1005.1 1005.2 0.0
28/04:30pm 13.3 8.0 4.9 57 3.9 ESE 22 30 12 16 1005.1 1005.2 0.0
28/04:00pm 13.5 8.5 4.7 55 4.1 ESE 20 30 11 16 1005.5 1005.6 0.0
28/03:30pm 14.1 9.2 4.1 51 4.6 ESE 19 28 10 15 1005.7 1005.8 0.0
28/03:00pm 14.8 8.9 4.0 48 5.0 ESE 24 32 13 17 1006.1 1006.2 0.0
28/02:30pm 14.9 9.5 1.1 39 6.0 ESE 19 26 10 14 1006.4 1006.5 0.0
28/02:00pm 15.0 9.1 -0.8 34 6.6 ESE 20 30 11 16 1006.7 1006.8 0.0
28/01:30pm 15.0 10.2 2.5 43 5.6 ESE 17 20 9 11 1007.1 1007.2 0.0
28/01:00pm 14.9 10.2 3.3 45 5.3 ESE 17 22 9 12 1007.4 1007.5 0.0
28/12:30pm 15.0 10.0 3.4 45 5.3 SE 19 22 10 12 1007.9 1008.0 0.0
28/12:00pm 14.3 9.3 -1.0 35 6.3 ESE 15 22 8 12 1008.3 1008.4 0.0
28/11:30am 14.3 9.3 -1.0 35 6.3 ESE 15 20 8 11 1008.5 1008.6 0.0
28/11:00am 15.2 10.5 0.6 37 6.3 NE 15 20 8 11 1008.8 1008.9 0.0
28/10:30am 14.9 10.7 1.7 41 5.8 NNE 13 17 7 9 1009.1 1009.2 0.0
28/10:00am 14.7 10.8 1.4 40 5.8 NW 11 19 6 10 1009.4 1009.5 0.0
28/09:30am 14.2 9.4 2.8 46 5.1 NNW 17 26 9 14 1009.4 1009.5 0.0
28/09:00am 13.8 8.6 2.5 46 5.0 NNW 19 26 10 14 1009.7 1009.8 0.2
28/08:30am 13.1 8.5 3.6 52 4.3 NNW 17 26 9 14 1009.7 1009.8 0.2
28/08:00am 12.0 8.8 5.1 62 3.2 N 11 17 6 9 1009.8 1009.9 0.2
28/07:30am 11.6 9.0 4.3 61 3.3 ESE 7 17 4 9 1010.0 1010.1 0.2
28/07:00am 9.9 6.6 4.5 69 2.4 WSW 11 15 6 8 1009.6 1009.7 0.2
28/06:30am 8.8 5.5 4.5 74 1.9 W 11 15 6 8 1009.3 1009.4 0.2
28/06:00am 8.1 4.0 4.5 78 1.6 NW 15 20 8 11 1009.2 1009.3 0.2
28/05:30am 8.0 5.4 4.1 76 1.7 WSW 7 15 4 8 1008.8 1008.9 0.2
28/05:00am 7.9 5.9 4.5 79 1.5 WNW 4 11 2 6 1008.5 1008.6 0.2
28/04:30am 8.1 5.7 4.5 78 1.6 NNW 6 13 3 7 1008.4 1008.5 0.2
28/04:00am 8.9 6.2 3.9 71 2.2 NNW 7 9 4 5 1008.3 1008.4 0.2
28/03:30am 9.7 6.7 4.1 68 2.5 NW 9 17 5 9 1007.9 1008.0 0.2
28/03:00am 10.6 6.0 3.8 63 3.0 N 17 24 9 13 1007.6 1007.7 0.2
28/02:30am 10.8 5.3 3.8 62 3.1 NNW 22 30 12 16 1007.5 1007.6 0.2
28/02:00am 10.7 6.5 4.0 63 3.0 NW 15 20 8 11 1007.3 1007.4 0.2
28/01:30am 10.5 6.9 4.8 68 2.6 NW 13 20 7 11 1007.4 1007.5 0.2
28/01:00am 10.2 7.1 5.6 73 2.1 NNW 11 22 6 12 1007.2 1007.3 0.2
28/12:30am 10.4 6.9 7.3 81 1.5 N 15 19 8 10 1007.3 1007.4 0.2
28/12:00am 10.2 7.1 7.3 82 1.4 NNW 13 19 7 10 1007.4 1007.5 0.2
 
Date/Time
EST
Temp
°C
App
Temp
°C
Dew
Point
°C
Rel
Hum
%
Delta-T
°C
Wind Press
QNH
hPa
Press
MSL
hPa
Rain since
9am
mm
Dir  Spd
km/h
Gust
km/h
Spd
kts
Gust
kts
27/11:30pm 9.5 7.5 7.2 85 1.1 NW 7 9 4 5 1007.4 1007.5 0.2
27/11:00pm 10.2 8.2 7.0 80 1.5 WNW 7 11 4 6 1007.6 1007.7 0.2
27/10:30pm 10.4 8.4 7.3 81 1.5 W 7 9 4 5 1007.5 1007.6 0.2
27/10:00pm 11.0 10.3 7.0 76 1.9 CALM 0 6 0 3 1007.4 1007.5 0.2
27/09:30pm 11.4 9.6 7.3 76 2.0 SSE 6 11 3 6 1007.7 1007.8 0.2
27/09:00pm 11.4 9.1 7.3 76 2.0 SW 9 17 5 9 1007.6 1007.7 0.2
27/08:30pm 11.3 9.0 7.6 78 1.8 S 9 17 5 9 1007.6 1007.7 0.2
27/08:00pm 12.1 7.7 6.7 69 2.6 SSW 19 28 10 15 1007.3 1007.4 0.2
27/07:30pm 12.4 8.8 6.8 68 2.7 SSW 15 20 8 11 1007.3 1007.4 0.2
27/07:00pm 12.7 9.6 7.1 69 2.7 SW 13 20 7 11 1007.1 1007.2 0.2
27/06:30pm 12.6 10.3 7.3 70 2.6 SSW 9 17 5 9 1006.9 1007.0 0.2
27/06:00pm 13.3 10.3 6.2 62 3.4 S 11 17 6 9 1006.7 1006.8 0.2
27/05:30pm 13.8 10.1 6.3 60 3.6 SE 15 20 8 11 1006.5 1006.6 0.2
27/05:00pm 14.2 10.1 6.1 58 3.9 SE 17 22 9 12 1006.2 1006.3 0.2

Other Formats:

Comma delimited format used in spreadsheet applications
http://www.bom.gov.au/fwo/IDT60801/IDT60801.94970.axf

JavaScript Object Notation format (JSON) in row-major order
http://www.bom.gov.au/fwo/IDT60801/IDT60801.94970.json